createdAt,value
2023-03-08T00:01:29.524Z,7.18
2023-03-08T00:03:32.750Z,6.25
2023-03-08T00:05:39.037Z,6.70
2023-03-08T00:07:43.708Z,6.72
2023-03-08T00:09:46.964Z,7.28
2023-03-08T00:11:50.035Z,7.00
2023-03-08T00:13:56.470Z,7.35
2023-03-08T00:16:00.887Z,7.45
2023-03-08T00:18:07.001Z,7.38
2023-03-08T00:20:12.297Z,7.38
2023-03-08T00:22:15.327Z,6.30
2023-03-08T00:24:19.905Z,7.25
2023-03-08T00:26:23.117Z,7.25
2023-03-08T00:28:26.501Z,7.63
2023-03-08T00:30:29.784Z,6.90
2023-03-08T00:32:33.177Z,7.30
2023-03-08T00:34:36.262Z,6.75
2023-03-08T00:36:39.317Z,7.28
2023-03-08T00:38:42.409Z,7.20
2023-03-08T00:40:47.028Z,7.63
2023-03-08T00:42:50.100Z,7.10
2023-03-08T00:44:53.593Z,7.20
2023-03-08T00:46:56.705Z,6.97
2023-03-08T00:48:59.953Z,7.25
2023-03-08T00:51:06.050Z,7.80
2023-03-08T00:53:09.356Z,7.80
2023-03-08T00:55:12.781Z,8.65
2023-03-08T00:57:17.838Z,7.50
2023-03-08T00:59:23.339Z,7.78
2023-03-08T01:01:27.131Z,7.90
2023-03-08T01:03:29.269Z,7.55
2023-03-08T01:05:32.394Z,8.32
2023-03-08T01:07:35.780Z,7.40
2023-03-08T01:09:38.914Z,8.27
2023-03-08T01:11:45.561Z,7.18
2023-03-08T01:13:54.347Z,7.85
2023-03-08T01:15:57.621Z,8.32
2023-03-08T01:18:00.914Z,8.85
2023-03-08T01:20:07.271Z,7.82
2023-03-08T01:22:10.814Z,8.05
2023-03-08T01:24:17.834Z,7.47
2023-03-08T01:26:23.117Z,8.40
2023-03-08T01:28:26.220Z,9.23
2023-03-08T01:30:30.758Z,8.05
2023-03-08T01:32:35.512Z,8.32
2023-03-08T01:34:40.883Z,9.23
2023-03-08T01:36:43.976Z,8.30
2023-03-08T01:38:50.335Z,8.05
2023-03-08T01:40:58.263Z,8.10
2023-03-08T01:43:12.803Z,8.80
2023-03-08T01:45:53.264Z,9.30
2023-03-08T01:47:58.254Z,8.48
2023-03-08T01:50:21.750Z,8.98
2023-03-08T01:52:26.927Z,8.63
2023-03-08T01:54:32.689Z,8.10
2023-03-08T01:56:37.314Z,8.30
2023-03-08T01:58:41.800Z,8.60
2023-03-08T02:00:44.919Z,8.82
2023-03-08T02:05:25.589Z,8.85
2023-03-08T02:07:33.898Z,8.55
2023-03-08T02:09:37.607Z,9.20
2023-03-08T02:11:42.167Z,8.45
2023-03-08T02:13:45.815Z,9.13
2023-03-08T02:15:50.162Z,8.68
2023-03-08T02:17:56.044Z,9.20
2023-03-08T02:20:01.180Z,8.77
2023-03-08T02:22:10.743Z,8.88
2023-03-08T02:24:23.668Z,9.13
2023-03-08T02:26:26.780Z,9.30
2023-03-08T02:28:30.076Z,8.90
2023-03-08T02:30:36.146Z,8.65
2023-03-08T02:32:39.357Z,8.98
2023-03-08T02:34:42.468Z,9.55
2023-03-08T02:36:45.507Z,9.70
2023-03-08T02:38:48.465Z,9.15
2023-03-08T02:40:53.180Z,9.10
2023-03-08T02:42:56.562Z,9.27
2023-03-08T02:44:59.660Z,9.85
2023-03-08T02:47:02.695Z,11.02
2023-03-08T02:49:05.916Z,9.35
2023-03-08T02:51:09.023Z,8.80
2023-03-08T02:53:12.220Z,9.27
2023-03-08T02:55:15.220Z,9.20
2023-03-08T02:57:19.739Z,9.70
2023-03-08T02:59:24.044Z,8.52
2023-03-08T03:01:28.570Z,8.93
2023-03-08T03:03:32.077Z,8.82
2023-03-08T03:05:35.157Z,8.73
2023-03-08T03:07:43.315Z,9.35
2023-03-08T03:09:52.390Z,9.45
2023-03-08T03:11:55.497Z,8.60
2023-03-08T03:14:01.556Z,9.43
2023-03-08T03:16:11.740Z,8.77
2023-03-08T03:18:14.901Z,9.98
2023-03-08T03:20:18.224Z,9.00
2023-03-08T03:22:21.272Z,8.65
2023-03-08T03:24:24.975Z,9.02
2023-03-08T03:26:31.808Z,8.60
2023-03-08T03:28:34.948Z,8.30
2023-03-08T03:30:40.795Z,9.57
2023-03-08T03:32:47.172Z,8.35
2023-03-08T03:34:54.287Z,9.20
2023-03-08T03:36:58.556Z,9.30
2023-03-08T03:39:01.755Z,9.18
2023-03-08T03:41:08.549Z,8.85
2023-03-08T03:43:12.323Z,8.13
2023-03-08T03:45:15.309Z,8.85
2023-03-08T03:47:19.964Z,9.50
2023-03-08T03:49:24.572Z,8.80
2023-03-08T03:51:28.207Z,9.40
2023-03-08T03:53:43.137Z,8.50
2023-03-08T03:55:46.201Z,8.57
2023-03-08T03:57:49.444Z,9.02
2023-03-08T03:59:53.570Z,7.57
2023-03-08T04:01:59.009Z,8.65
2023-03-08T04:04:12.056Z,7.90
2023-03-08T04:06:20.677Z,8.60
2023-03-08T04:08:26.570Z,8.80
2023-03-08T04:10:29.761Z,8.50
2023-03-08T04:12:33.157Z,8.40
2023-03-08T04:14:36.277Z,8.95
2023-03-08T04:16:41.166Z,8.63
2023-03-08T04:18:54.238Z,8.30
2023-03-08T04:20:58.984Z,8.45
2023-03-08T04:23:02.280Z,7.30
2023-03-08T04:25:12.051Z,8.45
2023-03-08T04:27:21.275Z,7.38
2023-03-08T04:29:24.419Z,7.50
2023-03-08T04:31:28.849Z,8.40
2023-03-08T04:33:34.808Z,8.40
2023-03-08T04:35:38.006Z,8.75
2023-03-08T04:37:45.509Z,8.27
2023-03-08T04:39:49.328Z,8.40
2023-03-08T04:41:53.358Z,8.40
2023-03-08T04:44:03.702Z,8.52
2023-03-08T04:46:22.364Z,8.50
2023-03-08T04:48:26.592Z,8.73
2023-03-08T04:50:29.935Z,9.30
2023-03-08T04:52:34.120Z,8.80
2023-03-08T04:54:38.822Z,8.48
2023-03-08T04:56:51.035Z,7.75
2023-03-08T04:58:55.119Z,8.00
2023-03-08T05:00:59.673Z,8.50
2023-03-08T05:03:02.907Z,8.45
2023-03-08T05:05:06.806Z,8.48
2023-03-08T05:07:10.029Z,8.75
2023-03-08T05:09:13.867Z,9.00
2023-03-08T05:11:21.886Z,8.35
2023-03-08T05:13:25.250Z,9.02
2023-03-08T05:15:28.388Z,8.27
2023-03-08T05:17:31.424Z,7.88
2023-03-08T05:19:34.711Z,8.70
2023-03-08T05:21:37.847Z,9.48
2023-03-08T05:23:41.263Z,9.48
2023-03-08T05:25:45.654Z,8.57
2023-03-08T05:27:50.982Z,9.85
2023-03-08T05:29:57.232Z,8.55
2023-03-08T05:32:02.221Z,9.18
2023-03-08T05:34:06.932Z,8.80
2023-03-08T05:36:13.778Z,8.90
2023-03-08T05:38:18.290Z,9.30
2023-03-08T05:40:21.861Z,9.02
2023-03-08T05:42:27.456Z,9.13
2023-03-08T05:44:33.024Z,8.82
2023-03-08T05:46:38.128Z,8.50
2023-03-08T05:48:42.340Z,8.27
2023-03-08T05:50:45.445Z,8.90
2023-03-08T05:52:50.486Z,9.50
2023-03-08T05:54:58.434Z,8.52
2023-03-08T05:57:01.463Z,9.32
2023-03-08T05:59:06.196Z,11.02
2023-03-08T06:01:14.311Z,9.90
2023-03-08T06:03:17.665Z,10.95
2023-03-08T06:05:21.388Z,10.07
2023-03-08T06:07:29.961Z,9.02
2023-03-08T06:09:40.424Z,9.60
2023-03-08T06:11:47.681Z,9.73
2023-03-08T06:13:50.828Z,9.60
2023-03-08T06:15:56.607Z,10.07
2023-03-08T06:18:01.954Z,10.23
2023-03-08T06:20:06.756Z,10.13
2023-03-08T06:22:13.071Z,10.23
2023-03-08T06:24:16.337Z,9.75
2023-03-08T06:26:19.455Z,9.75
2023-03-08T06:28:23.423Z,9.85
2023-03-08T06:30:26.695Z,12.02
2023-03-08T06:32:30.576Z,12.35
2023-03-08T06:34:35.033Z,10.90
2023-03-08T06:36:38.377Z,11.30
2023-03-08T06:38:42.714Z,15.07
2023-03-08T06:40:45.836Z,12.88
2023-03-08T06:42:48.894Z,12.75
2023-03-08T06:44:52.511Z,11.35
2023-03-08T06:46:55.957Z,10.32
2023-03-08T06:49:01.724Z,10.45
2023-03-08T06:51:07.506Z,10.32
2023-03-08T06:53:11.054Z,9.70
2023-03-08T06:55:30.542Z,9.35
2023-03-08T06:57:33.674Z,9.95
2023-03-08T06:59:36.726Z,11.30
2023-03-08T07:01:39.869Z,10.07
2023-03-08T07:03:45.393Z,10.10
2023-03-08T07:05:48.425Z,10.70
2023-03-08T07:07:53.152Z,11.20
2023-03-08T07:09:56.247Z,10.10
2023-03-08T07:11:59.352Z,9.98
2023-03-08T07:14:02.382Z,10.30
2023-03-08T07:16:09.154Z,9.40
2023-03-08T07:18:13.186Z,10.60
2023-03-08T07:20:19.243Z,10.57
2023-03-08T07:22:22.284Z,10.88
2023-03-08T07:24:26.736Z,10.95
2023-03-08T07:26:29.758Z,11.10
2023-03-08T07:28:32.996Z,10.75
2023-03-08T07:30:36.163Z,10.77
2023-03-08T07:32:40.801Z,11.23
2023-03-08T07:34:44.057Z,11.00
2023-03-08T07:36:47.309Z,10.02
2023-03-08T07:38:50.388Z,10.25
2023-03-08T07:40:56.993Z,11.20
2023-03-08T07:43:00.635Z,10.50
2023-03-08T07:45:24.131Z,10.50
2023-03-08T07:47:27.560Z,10.95
2023-03-08T07:49:30.842Z,10.85
2023-03-08T07:51:33.979Z,11.07
2023-03-08T07:53:37.882Z,11.68
2023-03-08T07:55:40.972Z,11.75
2023-03-08T07:57:45.414Z,11.15
2023-03-08T07:59:48.471Z,10.40
2023-03-08T08:01:51.822Z,11.55
2023-03-08T08:03:54.966Z,11.40
2023-03-08T08:05:58.037Z,11.20
2023-03-08T08:08:01.046Z,11.82
2023-03-08T08:10:04.529Z,12.27
2023-03-08T08:12:08.349Z,12.15
2023-03-08T08:14:12.860Z,12.15
2023-03-08T08:16:16.978Z,11.95
2023-03-08T08:18:20.178Z,12.68
2023-03-08T08:20:25.168Z,14.70
2023-03-08T08:22:28.381Z,15.35
2023-03-08T08:24:32.905Z,15.85
2023-03-08T08:26:36.041Z,15.00
2023-03-08T08:28:40.560Z,14.32
2023-03-08T08:30:45.018Z,15.75
2023-03-08T08:32:48.306Z,14.15
2023-03-08T08:34:51.454Z,15.90
2023-03-08T08:36:54.568Z,16.08
2023-03-08T08:38:57.616Z,15.85
2023-03-08T08:41:01.465Z,14.68
2023-03-08T08:43:04.500Z,16.00
2023-03-08T08:45:08.464Z,14.75
2023-03-08T08:47:12.946Z,16.27
2023-03-08T08:49:16.038Z,18.67
2023-03-08T08:51:19.132Z,15.05
2023-03-08T08:53:22.655Z,15.18
2023-03-08T08:55:25.896Z,14.60
2023-03-08T08:57:29.194Z,13.35
2023-03-08T08:59:32.262Z,14.50
2023-03-08T09:01:36.942Z,14.80
2023-03-08T09:03:41.429Z,14.07
2023-03-08T09:05:45.802Z,13.95
2023-03-08T09:07:49.618Z,13.82
2023-03-08T09:09:55.518Z,13.02
2023-03-08T09:11:58.690Z,14.80
2023-03-08T09:14:03.846Z,13.90
2023-03-08T09:16:07.454Z,15.10
2023-03-08T09:18:10.601Z,14.55
2023-03-08T09:20:15.433Z,14.90
2023-03-08T09:22:18.884Z,15.10
2023-03-08T09:24:22.064Z,14.68
2023-03-08T09:26:25.352Z,14.40
2023-03-08T09:28:28.451Z,14.82
2023-03-08T09:30:32.966Z,14.20
2023-03-08T09:32:36.954Z,14.43
2023-03-08T09:34:40.074Z,14.18
2023-03-08T09:36:44.559Z,15.82
2023-03-08T09:38:48.817Z,15.98
2023-03-08T09:41:00.416Z,15.98
2023-03-08T09:43:06.184Z,14.00
2023-03-08T09:45:19.200Z,14.90
2023-03-08T09:47:32.999Z,14.52
2023-03-08T09:49:37.200Z,17.13
2023-03-08T09:51:43.408Z,15.75
2023-03-08T09:53:50.568Z,15.13
2023-03-08T09:55:56.955Z,15.27
2023-03-08T09:58:03.215Z,16.50
2023-03-08T10:00:11.266Z,15.45
2023-03-08T10:02:25.244Z,15.63
2023-03-08T10:04:37.206Z,15.95
2023-03-08T10:06:44.758Z,16.48
2023-03-08T10:08:56.148Z,16.55
2023-03-08T10:11:01.378Z,15.38
2023-03-08T10:13:25.169Z,14.70
2023-03-08T10:15:29.627Z,15.88
2023-03-08T10:17:40.944Z,15.32
2023-03-08T10:19:46.649Z,15.75
2023-03-08T10:21:50.073Z,14.70
2023-03-08T10:24:00.295Z,16.35
2023-03-08T10:26:07.081Z,14.98
2023-03-08T10:28:13.874Z,14.93
2023-03-08T10:30:19.990Z,15.13
2023-03-08T10:32:24.665Z,14.68
2023-03-08T10:34:31.364Z,14.05
2023-03-08T10:36:34.510Z,15.02
2023-03-08T10:38:38.362Z,14.38
2023-03-08T10:40:42.813Z,14.30
2023-03-08T10:42:53.428Z,13.45
2023-03-08T10:44:59.457Z,12.40
2023-03-08T10:47:03.537Z,13.48
2023-03-08T10:49:10.921Z,12.27
2023-03-08T10:51:18.908Z,12.15
2023-03-08T10:53:23.173Z,12.10
2023-03-08T10:55:29.354Z,12.63
2023-03-08T10:57:34.384Z,17.25
2023-03-08T10:59:37.711Z,12.38
2023-03-08T11:01:49.949Z,11.25
2023-03-08T11:04:00.217Z,11.15
2023-03-08T11:06:04.739Z,10.13
2023-03-08T11:08:18.562Z,10.23
2023-03-08T11:10:24.728Z,9.65
2023-03-08T11:12:28.129Z,9.05
2023-03-08T11:14:32.880Z,8.93
2023-03-08T11:16:49.751Z,8.57
2023-03-08T11:18:59.497Z,9.85
2023-03-08T11:21:07.160Z,9.23
2023-03-08T11:23:18.144Z,8.73
2023-03-08T11:25:33.309Z,9.05
2023-03-08T11:27:49.765Z,8.70
2023-03-08T11:30:05.298Z,8.82
2023-03-08T11:32:18.151Z,7.60
2023-03-08T11:34:56.741Z,7.38
2023-03-08T11:37:04.080Z,6.57
2023-03-08T11:39:25.845Z,6.18
2023-03-08T11:41:35.040Z,7.00
2023-03-08T11:43:49.050Z,5.60
2023-03-08T11:45:57.923Z,6.03
2023-03-08T11:48:23.884Z,6.03
2023-03-08T11:50:29.240Z,5.20
2023-03-08T11:52:35.991Z,5.85
2023-03-08T11:54:50.361Z,6.18
2023-03-08T11:56:56.369Z,5.93
2023-03-08T11:59:02.822Z,5.03
2023-03-08T12:01:12.312Z,4.15
2023-03-08T12:03:18.231Z,3.90
2023-03-08T12:05:27.377Z,3.47
2023-03-08T12:07:35.412Z,2.25
2023-03-08T12:09:53.069Z,2.78
2023-03-08T12:12:03.416Z,1.55
2023-03-08T12:14:13.986Z,1.70
2023-03-08T12:16:20.930Z,1.67
2023-03-08T12:18:29.772Z,1.58
2023-03-08T12:20:36.387Z,1.40
2023-03-08T12:22:46.867Z,1.30
2023-03-08T12:24:53.913Z,1.37
2023-03-08T12:27:00.373Z,1.40
2023-03-08T12:29:07.934Z,1.10
2023-03-08T12:31:27.957Z,1.20
2023-03-08T12:33:33.144Z,3.22
2023-03-08T12:35:37.650Z,1.07
2023-03-08T12:37:40.965Z,1.30
2023-03-08T12:39:44.148Z,1.40
2023-03-08T12:41:58.126Z,1.63
2023-03-08T12:44:03.646Z,1.40
2023-03-08T12:46:08.927Z,1.17
2023-03-08T12:48:23.835Z,1.10
2023-03-08T12:50:27.363Z,1.20
2023-03-08T12:52:34.968Z,1.50
2023-03-08T12:54:38.281Z,1.47
2023-03-08T12:56:51.841Z,1.07
2023-03-08T12:58:56.050Z,1.60
2023-03-08T13:01:00.698Z,1.10
2023-03-08T13:03:06.018Z,1.40
2023-03-08T13:05:29.241Z,1.00
2023-03-08T13:07:37.092Z,1.33
2023-03-08T13:09:49.064Z,1.20
2023-03-08T13:11:59.121Z,1.10
2023-03-08T13:14:02.582Z,1.20
2023-03-08T13:16:07.384Z,1.40
2023-03-08T13:18:16.401Z,1.20
2023-03-08T13:20:24.109Z,1.80
2023-03-08T13:22:32.537Z,1.37
2023-03-08T13:24:41.771Z,1.60
2023-03-08T13:26:54.938Z,1.27
2023-03-08T13:28:58.350Z,1.10
2023-03-08T13:31:04.440Z,1.23
2023-03-08T13:33:10.051Z,1.20
2023-03-08T13:35:16.350Z,1.30
2023-03-08T13:37:25.850Z,1.47
2023-03-08T13:39:30.890Z,1.20
2023-03-08T13:41:35.937Z,1.37
2023-03-08T13:43:39.011Z,1.30
2023-03-08T13:45:42.473Z,1.20
2023-03-08T13:47:47.262Z,1.00
2023-03-08T13:49:51.933Z,1.10
2023-03-08T13:51:57.332Z,1.10
2023-03-08T13:54:02.199Z,1.20
2023-03-08T13:56:06.742Z,1.40
2023-03-08T13:58:20.938Z,1.30
2023-03-08T14:00:29.983Z,1.03
2023-03-08T14:02:33.603Z,1.30
2023-03-08T14:04:36.679Z,1.10
2023-03-08T14:06:43.373Z,1.00
2023-03-08T14:08:47.371Z,1.40
2023-03-08T14:10:54.962Z,0.90
2023-03-08T14:12:59.087Z,1.10
2023-03-08T14:15:04.130Z,1.00
2023-03-08T14:17:07.869Z,1.03
2023-03-08T14:19:12.516Z,1.10
2023-03-08T14:21:17.944Z,1.10
2023-03-08T14:23:25.084Z,1.43
2023-03-08T14:25:29.835Z,1.20
2023-03-08T14:27:39.275Z,1.20
2023-03-08T14:29:43.335Z,1.30
2023-03-08T14:31:58.658Z,2.63
2023-03-08T14:34:03.383Z,2.10
2023-03-08T14:36:07.338Z,1.20
2023-03-08T14:38:23.952Z,1.37
2023-03-08T14:40:30.670Z,1.00
2023-03-08T14:42:37.361Z,1.10
2023-03-08T14:44:40.571Z,1.10
2023-03-08T14:46:45.979Z,1.20
2023-03-08T14:48:58.646Z,1.00
2023-03-08T14:51:03.461Z,1.33
2023-03-08T14:53:25.532Z,1.23
2023-03-08T14:55:31.216Z,1.50
2023-03-08T14:57:35.718Z,1.20
2023-03-08T14:59:40.956Z,1.20
2023-03-08T15:01:44.155Z,1.33
2023-03-08T15:03:47.361Z,1.30
2023-03-08T15:05:50.964Z,0.87
2023-03-08T15:07:54.310Z,1.10
2023-03-08T15:09:57.457Z,1.00
2023-03-08T15:12:01.623Z,1.10
2023-03-08T15:14:06.294Z,1.37
2023-03-08T15:16:13.281Z,1.00
2023-03-08T15:18:17.528Z,1.70
2023-03-08T15:20:20.848Z,0.93
2023-03-08T15:22:23.958Z,1.17
2023-03-08T15:24:27.086Z,0.90
2023-03-08T15:26:32.539Z,0.90
2023-03-08T15:28:36.782Z,3.90
2023-03-08T15:30:41.296Z,1.90
2023-03-08T15:32:44.586Z,1.30
2023-03-08T15:34:47.698Z,1.00
2023-03-08T15:36:51.771Z,0.90
2023-03-08T15:38:54.840Z,1.03
2023-03-08T15:40:58.004Z,0.83
2023-03-08T15:43:01.306Z,0.90
2023-03-08T15:45:04.874Z,1.20
2023-03-08T15:47:10.546Z,1.10
2023-03-08T15:49:13.731Z,1.27
2023-03-08T15:51:19.484Z,1.00
2023-03-08T15:53:34.594Z,1.07
2023-03-08T15:55:39.683Z,0.80
2023-03-08T15:57:43.082Z,1.40
2023-03-08T15:59:46.185Z,0.80
2023-03-08T16:01:49.359Z,1.17
2023-03-08T16:03:54.877Z,0.67
2023-03-08T16:05:58.602Z,0.90
2023-03-08T16:08:03.113Z,0.80
2023-03-08T16:10:08.537Z,0.90
2023-03-08T16:12:11.781Z,1.40
2023-03-08T16:14:17.788Z,0.90
2023-03-08T16:16:21.725Z,0.80
2023-03-08T16:18:24.892Z,1.00
2023-03-08T16:20:29.384Z,1.00
2023-03-08T16:22:32.599Z,1.13
2023-03-08T16:24:35.636Z,1.00
2023-03-08T16:26:38.797Z,0.90
2023-03-08T16:28:41.906Z,0.90
2023-03-08T16:30:45.012Z,1.07
2023-03-08T16:32:48.221Z,0.80
2023-03-08T16:34:51.939Z,1.27
2023-03-08T16:36:56.842Z,1.00
2023-03-08T16:38:59.990Z,1.13
2023-03-08T16:41:12.633Z,1.00
2023-03-08T16:43:17.503Z,1.10
2023-03-08T16:45:20.709Z,1.40
2023-03-08T16:47:25.271Z,1.80
2023-03-08T16:49:29.214Z,1.83
2023-03-08T16:51:32.543Z,1.70
2023-03-08T16:53:36.996Z,2.10
2023-03-08T16:55:42.199Z,1.50
2023-03-08T16:57:45.473Z,1.27
2023-03-08T16:59:49.024Z,1.13
2023-03-08T17:01:52.180Z,1.10
2023-03-08T17:03:56.435Z,1.53
2023-03-08T17:05:59.629Z,0.80
2023-03-08T17:08:02.778Z,1.30
2023-03-08T17:10:09.084Z,1.30
2023-03-08T17:12:12.135Z,1.00
2023-03-08T17:14:15.659Z,0.93
2023-03-08T17:16:19.595Z,1.07
2023-03-08T17:18:24.384Z,0.80
2023-03-08T17:20:27.581Z,1.00
2023-03-08T17:22:33.593Z,1.20
2023-03-08T17:24:36.741Z,1.10
2023-03-08T17:26:44.590Z,1.23
2023-03-08T17:28:47.921Z,1.00
2023-03-08T17:30:50.967Z,1.00
2023-03-08T17:32:54.098Z,1.13
2023-03-08T17:34:57.305Z,1.07
2023-03-08T17:37:00.401Z,0.80
2023-03-08T17:39:04.103Z,0.80
2023-03-08T17:41:08.342Z,1.00
2023-03-08T17:43:13.364Z,0.83
2023-03-08T17:45:17.547Z,0.90
2023-03-08T17:47:20.577Z,1.07
2023-03-08T17:49:25.130Z,1.10
2023-03-08T17:51:31.363Z,0.90
2023-03-08T17:53:34.942Z,1.13
2023-03-08T17:55:41.465Z,1.10
2023-03-08T17:57:44.534Z,1.10
2023-03-08T17:59:50.017Z,0.97
2023-03-08T18:01:53.192Z,1.10
2023-03-08T18:03:57.646Z,1.20
2023-03-08T18:06:00.783Z,1.20
2023-03-08T18:08:03.967Z,1.07
2023-03-08T18:10:10.920Z,1.10
2023-03-08T18:12:14.029Z,1.03
2023-03-08T18:14:17.081Z,1.10
2023-03-08T18:16:22.896Z,1.07
2023-03-08T18:18:27.165Z,1.30
2023-03-08T18:20:30.461Z,1.30
2023-03-08T18:22:33.664Z,1.27
2023-03-08T18:24:36.828Z,1.90
2023-03-08T18:26:39.955Z,1.10
2023-03-08T18:28:43.347Z,1.40
2023-03-08T18:30:48.869Z,1.47
2023-03-08T18:32:53.486Z,1.23
2023-03-08T18:34:56.898Z,1.30
2023-03-08T18:36:59.925Z,1.20
2023-03-08T18:39:05.610Z,1.43
2023-03-08T18:41:16.048Z,1.50
2023-03-08T18:43:19.226Z,1.10
2023-03-08T18:45:22.706Z,1.50
2023-03-08T18:47:25.920Z,1.40
2023-03-08T18:49:30.600Z,1.30
2023-03-08T18:51:35.536Z,1.23
2023-03-08T18:53:38.599Z,1.60
2023-03-08T18:55:41.902Z,1.20
2023-03-08T18:57:45.226Z,1.20
2023-03-08T18:59:48.343Z,1.37
2023-03-08T19:01:51.564Z,1.50
2023-03-08T19:03:54.778Z,1.30
2023-03-08T19:06:02.965Z,1.20
2023-03-08T19:08:06.177Z,1.20
2023-03-08T19:10:14.686Z,1.50
2023-03-08T19:12:17.794Z,1.40
2023-03-08T19:14:20.882Z,1.30
2023-03-08T19:16:25.549Z,1.60
2023-03-08T19:18:28.852Z,1.53
2023-03-08T19:20:32.114Z,1.30
2023-03-08T19:22:36.663Z,1.47
2023-03-08T19:24:39.854Z,1.40
2023-03-08T19:26:46.859Z,1.60
2023-03-08T19:28:50.068Z,1.50
2023-03-08T19:30:53.209Z,1.27
2023-03-08T19:32:56.962Z,1.60
2023-03-08T19:35:01.797Z,1.20
2023-03-08T19:37:07.069Z,1.33
2023-03-08T19:39:17.778Z,1.33
2023-03-08T19:41:20.943Z,1.50
2023-03-08T19:43:24.047Z,1.93
2023-03-08T19:45:27.193Z,1.80
2023-03-08T19:47:30.345Z,1.43
2023-03-08T19:49:34.960Z,1.50
2023-03-08T19:51:38.146Z,1.40
2023-03-08T19:53:42.116Z,1.33
2023-03-08T19:55:51.161Z,1.50
2023-03-08T19:57:54.266Z,1.47
2023-03-08T19:59:59.354Z,1.30
2023-03-08T20:02:02.624Z,1.20
2023-03-08T20:04:06.056Z,1.30
2023-03-08T20:06:10.028Z,1.67
2023-03-08T20:08:14.026Z,1.40
2023-03-08T20:10:18.537Z,1.27
2023-03-08T20:12:23.139Z,1.43
2023-03-08T20:14:27.871Z,1.30
2023-03-08T20:16:31.484Z,1.30
2023-03-08T20:18:34.691Z,1.40
2023-03-08T20:20:38.023Z,1.27
2023-03-08T20:22:42.370Z,1.27
2023-03-08T20:24:45.680Z,1.60
2023-03-08T20:26:49.464Z,1.47
2023-03-08T20:28:54.151Z,1.30
2023-03-08T20:30:57.332Z,1.40
2023-03-08T20:33:00.515Z,2.03
2023-03-08T20:35:04.278Z,1.80
2023-03-08T20:37:07.339Z,2.13
2023-03-08T20:39:10.872Z,1.60
2023-03-08T20:41:15.859Z,1.90
2023-03-08T20:43:19.123Z,1.87
2023-03-08T20:45:23.954Z,2.00
2023-03-08T20:47:27.056Z,2.23
2023-03-08T20:49:30.199Z,2.10
2023-03-08T20:51:33.337Z,2.87
2023-03-08T20:53:36.618Z,2.03
2023-03-08T20:55:40.865Z,2.40
2023-03-08T20:57:44.137Z,2.17
2023-03-08T20:59:47.197Z,3.30
2023-03-08T21:01:51.721Z,2.60
2023-03-08T21:03:54.816Z,2.30
2023-03-08T21:05:57.948Z,1.80
2023-03-08T21:08:01.367Z,2.07
2023-03-08T21:10:05.038Z,1.80
2023-03-08T21:12:08.396Z,2.43
2023-03-08T21:14:12.016Z,2.40
2023-03-08T21:16:17.609Z,2.30
2023-03-08T21:18:22.105Z,2.20
2023-03-08T21:20:25.446Z,2.70
2023-03-08T21:22:29.128Z,2.30
2023-03-08T21:24:32.248Z,2.20
2023-03-08T21:26:35.855Z,2.23
2023-03-08T21:28:38.956Z,2.10
2023-03-08T21:30:42.195Z,2.10
2023-03-08T21:32:45.357Z,2.30
2023-03-08T21:34:50.274Z,2.40
2023-03-08T21:36:53.377Z,2.17
2023-03-08T21:38:57.718Z,2.60
2023-03-08T21:41:00.841Z,2.57
2023-03-08T21:43:03.958Z,2.43
2023-03-08T21:45:08.117Z,2.90
2023-03-08T21:47:11.261Z,2.77
2023-03-08T21:49:18.160Z,2.43
2023-03-08T21:51:22.893Z,2.50
2023-03-08T21:53:26.044Z,2.63
2023-03-08T21:55:29.132Z,2.43
2023-03-08T21:57:34.042Z,2.33
2023-03-08T21:59:37.097Z,2.73
2023-03-08T22:01:40.501Z,2.87
2023-03-08T22:03:43.643Z,4.43
2023-03-08T22:05:46.836Z,2.87
2023-03-08T22:07:51.337Z,3.10
2023-03-08T22:09:54.452Z,5.27
2023-03-08T22:11:58.560Z,3.07
2023-03-08T22:14:02.255Z,3.00
2023-03-08T22:16:06.055Z,3.97
2023-03-08T22:18:09.158Z,3.70
2023-03-08T22:20:13.074Z,4.43
2023-03-08T22:22:16.838Z,5.27
2023-03-08T22:24:21.321Z,2.43
2023-03-08T22:26:25.503Z,1.60
2023-03-08T22:28:28.535Z,2.30
2023-03-08T22:30:31.611Z,2.10
2023-03-08T22:32:34.764Z,2.30
2023-03-08T22:34:37.914Z,2.53
2023-03-08T22:36:41.026Z,2.30
2023-03-08T22:38:44.301Z,2.70
2023-03-08T22:40:48.710Z,3.27
2023-03-08T22:42:51.783Z,2.80
2023-03-08T22:44:54.846Z,2.67
2023-03-08T22:46:57.946Z,3.47
2023-03-08T22:49:04.652Z,5.80
2023-03-08T22:51:11.383Z,3.50
2023-03-08T22:53:14.676Z,3.60
2023-03-08T22:55:17.703Z,3.40
2023-03-08T22:57:22.227Z,1.80
2023-03-08T22:59:25.762Z,3.40
2023-03-08T23:01:30.062Z,3.77
2023-03-08T23:03:33.419Z,3.30
2023-03-08T23:05:36.672Z,3.20
2023-03-08T23:07:39.701Z,5.57
2023-03-08T23:09:42.777Z,3.47
2023-03-08T23:11:46.436Z,2.70
2023-03-08T23:13:50.851Z,1.90
2023-03-08T23:15:54.004Z,2.27
2023-03-08T23:17:57.026Z,2.27
2023-03-08T23:20:00.110Z,2.20
2023-03-08T23:22:03.794Z,2.00
2023-03-08T23:24:07.546Z,2.30
2023-03-08T23:26:12.810Z,1.97
2023-03-08T23:28:15.853Z,2.07
2023-03-08T23:30:20.431Z,1.83
2023-03-08T23:32:23.482Z,1.80
2023-03-08T23:34:26.754Z,2.20
2023-03-08T23:36:31.762Z,2.10
2023-03-08T23:38:34.976Z,1.67
2023-03-08T23:40:39.867Z,1.80
2023-03-08T23:42:42.927Z,1.53
2023-03-08T23:44:46.202Z,1.50
2023-03-08T23:46:50.542Z,1.63
2023-03-08T23:48:55.174Z,1.40
2023-03-08T23:50:58.301Z,1.17
2023-03-08T23:53:01.387Z,1.20
2023-03-08T23:55:04.946Z,1.30
2023-03-08T23:57:08.307Z,1.20
2023-03-08T23:59:17.495Z,1.60
